sensor_id;sensor_type;location;lat;lon;timestamp;P1;durP1;ratioP1;P2;durP2;ratioP2
8100;SDS011;4093;53.470;9.832;2022-08-19T00:01:33;6.35;;;5.28;;
8100;SDS011;4093;53.470;9.832;2022-08-19T00:04:03;5.93;;;4.78;;
8100;SDS011;4093;53.470;9.832;2022-08-19T00:06:33;6.20;;;5.25;;
8100;SDS011;4093;53.470;9.832;2022-08-19T00:09:02;6.00;;;4.70;;
8100;SDS011;4093;53.470;9.832;2022-08-19T00:11:30;5.88;;;5.20;;
8100;SDS011;4093;53.470;9.832;2022-08-19T00:13:57;9.07;;;5.82;;
8100;SDS011;4093;53.470;9.832;2022-08-19T00:16:24;7.65;;;6.05;;
8100;SDS011;4093;53.470;9.832;2022-08-19T00:18:51;6.32;;;5.47;;
8100;SDS011;4093;53.470;9.832;2022-08-19T00:21:18;7.82;;;5.18;;
8100;SDS011;4093;53.470;9.832;2022-08-19T00:23:45;8.27;;;5.53;;
8100;SDS011;4093;53.470;9.832;2022-08-19T00:26:13;7.50;;;5.05;;
8100;SDS011;4093;53.470;9.832;2022-08-19T00:28:40;9.88;;;5.88;;
8100;SDS011;4093;53.470;9.832;2022-08-19T00:31:07;9.10;;;5.97;;
8100;SDS011;4093;53.470;9.832;2022-08-19T00:33:34;6.38;;;5.65;;
8100;SDS011;4093;53.470;9.832;2022-08-19T00:36:02;7.60;;;5.30;;
8100;SDS011;4093;53.470;9.832;2022-08-19T00:38:31;7.10;;;5.70;;
8100;SDS011;4093;53.470;9.832;2022-08-19T00:40:58;9.00;;;6.60;;
8100;SDS011;4093;53.470;9.832;2022-08-19T00:43:26;6.15;;;5.50;;
8100;SDS011;4093;53.470;9.832;2022-08-19T00:45:54;6.65;;;5.90;;
8100;SDS011;4093;53.470;9.832;2022-08-19T00:48:20;7.13;;;5.72;;
8100;SDS011;4093;53.470;9.832;2022-08-19T00:50:48;6.80;;;5.63;;
8100;SDS011;4093;53.470;9.832;2022-08-19T00:53:17;8.90;;;5.47;;
8100;SDS011;4093;53.470;9.832;2022-08-19T00:55:47;6.82;;;5.30;;
8100;SDS011;4093;53.470;9.832;2022-08-19T00:58:19;9.52;;;6.00;;
8100;SDS011;4093;53.470;9.832;2022-08-19T01:00:50;7.60;;;6.20;;
8100;SDS011;4093;53.470;9.832;2022-08-19T01:03:18;6.32;;;5.72;;
8100;SDS011;4093;53.470;9.832;2022-08-19T01:05:46;7.22;;;5.45;;
8100;SDS011;4093;53.470;9.832;2022-08-19T01:08:14;8.13;;;5.65;;
8100;SDS011;4093;53.470;9.832;2022-08-19T01:10:43;6.90;;;5.75;;
8100;SDS011;4093;53.470;9.832;2022-08-19T01:13:14;9.70;;;5.72;;
8100;SDS011;4093;53.470;9.832;2022-08-19T01:15:42;7.00;;;5.78;;
8100;SDS011;4093;53.470;9.832;2022-08-19T01:18:14;8.88;;;6.18;;
8100;SDS011;4093;53.470;9.832;2022-08-19T01:20:42;7.47;;;5.30;;
8100;SDS011;4093;53.470;9.832;2022-08-19T01:23:12;9.38;;;6.40;;
8100;SDS011;4093;53.470;9.832;2022-08-19T01:25:40;8.10;;;5.28;;
8100;SDS011;4093;53.470;9.832;2022-08-19T01:28:14;5.55;;;4.93;;
8100;SDS011;4093;53.470;9.832;2022-08-19T01:30:42;8.45;;;5.43;;
8100;SDS011;4093;53.470;9.832;2022-08-19T01:33:10;7.45;;;6.03;;
8100;SDS011;4093;53.470;9.832;2022-08-19T01:35:36;8.82;;;6.13;;
8100;SDS011;4093;53.470;9.832;2022-08-19T01:38:04;7.93;;;6.00;;
8100;SDS011;4093;53.470;9.832;2022-08-19T01:40:35;7.60;;;4.88;;
8100;SDS011;4093;53.470;9.832;2022-08-19T01:43:05;7.05;;;5.82;;
8100;SDS011;4093;53.470;9.832;2022-08-19T01:45:33;9.27;;;6.82;;
8100;SDS011;4093;53.470;9.832;2022-08-19T01:48:00;9.52;;;6.70;;
8100;SDS011;4093;53.470;9.832;2022-08-19T01:50:28;12.27;;;6.32;;
8100;SDS011;4093;53.470;9.832;2022-08-19T01:52:55;9.07;;;5.72;;
8100;SDS011;4093;53.470;9.832;2022-08-19T01:55:21;8.43;;;6.32;;
8100;SDS011;4093;53.470;9.832;2022-08-19T01:57:51;7.75;;;6.95;;
8100;SDS011;4093;53.470;9.832;2022-08-19T02:00:22;10.32;;;6.15;;
8100;SDS011;4093;53.470;9.832;2022-08-19T02:02:50;8.82;;;6.40;;
8100;SDS011;4093;53.470;9.832;2022-08-19T02:05:17;6.57;;;5.88;;
8100;SDS011;4093;53.470;9.832;2022-08-19T02:07:46;8.20;;;6.13;;
8100;SDS011;4093;53.470;9.832;2022-08-19T02:10:14;7.03;;;6.30;;
8100;SDS011;4093;53.470;9.832;2022-08-19T02:12:44;8.50;;;6.60;;
8100;SDS011;4093;53.470;9.832;2022-08-19T02:15:13;10.13;;;6.80;;
8100;SDS011;4093;53.470;9.832;2022-08-19T02:17:40;9.20;;;7.35;;
8100;SDS011;4093;53.470;9.832;2022-08-19T02:20:07;10.25;;;7.18;;
8100;SDS011;4093;53.470;9.832;2022-08-19T02:22:35;10.00;;;8.18;;
8100;SDS011;4093;53.470;9.832;2022-08-19T02:25:02;10.52;;;8.75;;
8100;SDS011;4093;53.470;9.832;2022-08-19T02:27:29;15.55;;;9.23;;
8100;SDS011;4093;53.470;9.832;2022-08-19T02:29:57;11.23;;;8.73;;
8100;SDS011;4093;53.470;9.832;2022-08-19T02:32:25;16.50;;;10.77;;
8100;SDS011;4093;53.470;9.832;2022-08-19T02:34:52;15.02;;;9.35;;
8100;SDS011;4093;53.470;9.832;2022-08-19T02:37:19;12.05;;;9.45;;
8100;SDS011;4093;53.470;9.832;2022-08-19T02:40:03;11.73;;;9.23;;
8100;SDS011;4093;53.470;9.832;2022-08-19T02:42:30;15.68;;;9.10;;
8100;SDS011;4093;53.470;9.832;2022-08-19T02:44:57;14.25;;;9.23;;
8100;SDS011;4093;53.470;9.832;2022-08-19T02:47:26;13.43;;;9.30;;
8100;SDS011;4093;53.470;9.832;2022-08-19T02:49:52;13.80;;;9.45;;
8100;SDS011;4093;53.470;9.832;2022-08-19T02:52:19;12.38;;;9.85;;
8100;SDS011;4093;53.470;9.832;2022-08-19T02:54:48;14.07;;;9.60;;
8100;SDS011;4093;53.470;9.832;2022-08-19T02:57:15;15.35;;;10.02;;
8100;SDS011;4093;53.470;9.832;2022-08-19T02:59:41;17.67;;;10.30;;
8100;SDS011;4093;53.470;9.832;2022-08-19T03:02:08;11.07;;;8.75;;
8100;SDS011;4093;53.470;9.832;2022-08-19T03:04:36;14.68;;;9.80;;
8100;SDS011;4093;53.470;9.832;2022-08-19T03:07:02;13.93;;;9.57;;
8100;SDS011;4093;53.470;9.832;2022-08-19T03:09:29;14.65;;;9.98;;
8100;SDS011;4093;53.470;9.832;2022-08-19T03:11:56;13.98;;;10.55;;
8100;SDS011;4093;53.470;9.832;2022-08-19T03:14:22;13.82;;;9.60;;
8100;SDS011;4093;53.470;9.832;2022-08-19T03:16:50;17.45;;;11.57;;
8100;SDS011;4093;53.470;9.832;2022-08-19T03:19:18;14.70;;;10.80;;
8100;SDS011;4093;53.470;9.832;2022-08-19T03:21:47;15.88;;;10.55;;
8100;SDS011;4093;53.470;9.832;2022-08-19T03:24:14;14.80;;;10.55;;
8100;SDS011;4093;53.470;9.832;2022-08-19T03:26:43;18.25;;;10.43;;
8100;SDS011;4093;53.470;9.832;2022-08-19T03:29:11;15.82;;;10.45;;
8100;SDS011;4093;53.470;9.832;2022-08-19T03:31:39;15.23;;;9.75;;
8100;SDS011;4093;53.470;9.832;2022-08-19T03:34:08;15.75;;;10.15;;
8100;SDS011;4093;53.470;9.832;2022-08-19T03:36:36;14.60;;;9.82;;
8100;SDS011;4093;53.470;9.832;2022-08-19T03:39:05;15.77;;;10.40;;
8100;SDS011;4093;53.470;9.832;2022-08-19T03:41:37;14.40;;;10.23;;
8100;SDS011;4093;53.470;9.832;2022-08-19T03:44:05;13.93;;;9.98;;
8100;SDS011;4093;53.470;9.832;2022-08-19T03:46:32;14.95;;;9.90;;
8100;SDS011;4093;53.470;9.832;2022-08-19T03:49:00;17.35;;;10.20;;
8100;SDS011;4093;53.470;9.832;2022-08-19T03:51:29;17.33;;;9.98;;
8100;SDS011;4093;53.470;9.832;2022-08-19T03:53:58;17.38;;;10.30;;
8100;SDS011;4093;53.470;9.832;2022-08-19T03:56:28;17.23;;;11.23;;
8100;SDS011;4093;53.470;9.832;2022-08-19T03:58:55;12.95;;;9.60;;
8100;SDS011;4093;53.470;9.832;2022-08-19T04:01:24;17.80;;;11.07;;
8100;SDS011;4093;53.470;9.832;2022-08-19T04:03:52;16.17;;;10.48;;
8100;SDS011;4093;53.470;9.832;2022-08-19T04:06:20;17.67;;;11.35;;
8100;SDS011;4093;53.470;9.832;2022-08-19T04:08:49;16.98;;;10.88;;
8100;SDS011;4093;53.470;9.832;2022-08-19T04:11:20;18.10;;;11.07;;
8100;SDS011;4093;53.470;9.832;2022-08-19T04:13:51;17.38;;;11.23;;
8100;SDS011;4093;53.470;9.832;2022-08-19T04:16:18;16.98;;;10.15;;
8100;SDS011;4093;53.470;9.832;2022-08-19T04:18:46;17.52;;;11.82;;
8100;SDS011;4093;53.470;9.832;2022-08-19T04:21:15;18.05;;;10.35;;
8100;SDS011;4093;53.470;9.832;2022-08-19T04:23:43;17.70;;;12.27;;
8100;SDS011;4093;53.470;9.832;2022-08-19T04:26:12;23.30;;;10.85;;
8100;SDS011;4093;53.470;9.832;2022-08-19T04:28:40;15.85;;;10.88;;
8100;SDS011;4093;53.470;9.832;2022-08-19T04:31:11;18.05;;;10.35;;
8100;SDS011;4093;53.470;9.832;2022-08-19T04:33:40;18.58;;;10.38;;
8100;SDS011;4093;53.470;9.832;2022-08-19T04:36:07;16.55;;;10.48;;
8100;SDS011;4093;53.470;9.832;2022-08-19T04:38:35;17.25;;;10.43;;
8100;SDS011;4093;53.470;9.832;2022-08-19T04:41:02;26.55;;;12.40;;
8100;SDS011;4093;53.470;9.832;2022-08-19T04:43:47;18.83;;;11.30;;
8100;SDS011;4093;53.470;9.832;2022-08-19T04:46:15;19.63;;;11.80;;
8100;SDS011;4093;53.470;9.832;2022-08-19T04:48:42;20.38;;;11.70;;
8100;SDS011;4093;53.470;9.832;2022-08-19T04:51:09;16.08;;;11.02;;
8100;SDS011;4093;53.470;9.832;2022-08-19T04:53:39;22.45;;;12.02;;
8100;SDS011;4093;53.470;9.832;2022-08-19T04:56:07;22.13;;;11.98;;
8100;SDS011;4093;53.470;9.832;2022-08-19T04:58:36;15.75;;;10.98;;
8100;SDS011;4093;53.470;9.832;2022-08-19T05:01:04;22.42;;;10.77;;
8100;SDS011;4093;53.470;9.832;2022-08-19T05:03:32;22.30;;;11.85;;
8100;SDS011;4093;53.470;9.832;2022-08-19T05:06:03;17.63;;;10.98;;
8100;SDS011;4093;53.470;9.832;2022-08-19T05:08:32;16.60;;;11.07;;
8100;SDS011;4093;53.470;9.832;2022-08-19T05:11:00;18.98;;;11.45;;
8100;SDS011;4093;53.470;9.832;2022-08-19T05:13:28;25.00;;;12.07;;
8100;SDS011;4093;53.470;9.832;2022-08-19T05:15:54;14.88;;;11.15;;
8100;SDS011;4093;53.470;9.832;2022-08-19T05:18:22;24.55;;;11.88;;
8100;SDS011;4093;53.470;9.832;2022-08-19T05:21:08;15.40;;;10.82;;
8100;SDS011;4093;53.470;9.832;2022-08-19T05:23:54;14.77;;;10.90;;
8100;SDS011;4093;53.470;9.832;2022-08-19T05:26:22;23.08;;;12.07;;
8100;SDS011;4093;53.470;9.832;2022-08-19T05:28:50;16.42;;;11.50;;
8100;SDS011;4093;53.470;9.832;2022-08-19T05:31:17;21.50;;;12.10;;
8100;SDS011;4093;53.470;9.832;2022-08-19T05:33:44;16.08;;;11.50;;
8100;SDS011;4093;53.470;9.832;2022-08-19T05:36:12;17.15;;;11.20;;
8100;SDS011;4093;53.470;9.832;2022-08-19T05:38:39;17.83;;;11.27;;
8100;SDS011;4093;53.470;9.832;2022-08-19T05:41:06;21.10;;;11.63;;
8100;SDS011;4093;53.470;9.832;2022-08-19T05:43:34;20.23;;;12.10;;
8100;SDS011;4093;53.470;9.832;2022-08-19T05:46:00;17.88;;;12.18;;
8100;SDS011;4093;53.470;9.832;2022-08-19T05:48:27;15.90;;;11.23;;
8100;SDS011;4093;53.470;9.832;2022-08-19T05:50:54;18.63;;;11.52;;
8100;SDS011;4093;53.470;9.832;2022-08-19T05:53:23;13.18;;;10.85;;
8100;SDS011;4093;53.470;9.832;2022-08-19T05:55:50;20.00;;;11.20;;
8100;SDS011;4093;53.470;9.832;2022-08-19T05:58:16;17.55;;;9.93;;
8100;SDS011;4093;53.470;9.832;2022-08-19T06:00:43;14.30;;;10.93;;
8100;SDS011;4093;53.470;9.832;2022-08-19T06:03:10;17.00;;;10.52;;
8100;SDS011;4093;53.470;9.832;2022-08-19T06:05:37;17.65;;;10.43;;
8100;SDS011;4093;53.470;9.832;2022-08-19T06:08:03;15.75;;;11.23;;
8100;SDS011;4093;53.470;9.832;2022-08-19T06:10:31;16.10;;;11.27;;
8100;SDS011;4093;53.470;9.832;2022-08-19T06:12:58;15.73;;;9.95;;
8100;SDS011;4093;53.470;9.832;2022-08-19T06:15:25;16.40;;;9.73;;
8100;SDS011;4093;53.470;9.832;2022-08-19T06:17:52;14.75;;;9.80;;
8100;SDS011;4093;53.470;9.832;2022-08-19T06:20:19;13.88;;;9.57;;
8100;SDS011;4093;53.470;9.832;2022-08-19T06:22:46;12.60;;;9.65;;
8100;SDS011;4093;53.470;9.832;2022-08-19T06:25:15;17.00;;;10.82;;
8100;SDS011;4093;53.470;9.832;2022-08-19T06:27:43;14.07;;;9.52;;
8100;SDS011;4093;53.470;9.832;2022-08-19T06:30:10;12.45;;;9.50;;
8100;SDS011;4093;53.470;9.832;2022-08-19T06:32:38;13.43;;;9.55;;
8100;SDS011;4093;53.470;9.832;2022-08-19T06:35:05;14.73;;;9.15;;
8100;SDS011;4093;53.470;9.832;2022-08-19T06:37:33;16.13;;;9.95;;
8100;SDS011;4093;53.470;9.832;2022-08-19T06:39:59;17.40;;;9.88;;
8100;SDS011;4093;53.470;9.832;2022-08-19T06:42:26;10.35;;;8.98;;
8100;SDS011;4093;53.470;9.832;2022-08-19T06:44:54;14.18;;;9.40;;
8100;SDS011;4093;53.470;9.832;2022-08-19T06:47:21;15.90;;;9.50;;
8100;SDS011;4093;53.470;9.832;2022-08-19T06:49:48;10.18;;;8.50;;
8100;SDS011;4093;53.470;9.832;2022-08-19T06:52:15;10.93;;;8.32;;
8100;SDS011;4093;53.470;9.832;2022-08-19T06:54:43;17.63;;;9.98;;
8100;SDS011;4093;53.470;9.832;2022-08-19T06:57:10;15.65;;;9.52;;
8100;SDS011;4093;53.470;9.832;2022-08-19T06:59:40;14.00;;;8.23;;
8100;SDS011;4093;53.470;9.832;2022-08-19T07:02:08;13.90;;;9.23;;
8100;SDS011;4093;53.470;9.832;2022-08-19T07:04:35;11.90;;;8.23;;
8100;SDS011;4093;53.470;9.832;2022-08-19T07:07:04;16.45;;;8.05;;
8100;SDS011;4093;53.470;9.832;2022-08-19T07:09:33;14.88;;;8.35;;
8100;SDS011;4093;53.470;9.832;2022-08-19T07:12:02;19.75;;;9.13;;
8100;SDS011;4093;53.470;9.832;2022-08-19T07:14:30;16.60;;;9.85;;
8100;SDS011;4093;53.470;9.832;2022-08-19T07:16:56;12.80;;;9.27;;
8100;SDS011;4093;53.470;9.832;2022-08-19T07:19:26;15.25;;;9.48;;
8100;SDS011;4093;53.470;9.832;2022-08-19T07:21:53;11.05;;;8.63;;
8100;SDS011;4093;53.470;9.832;2022-08-19T07:24:21;10.35;;;7.72;;
8100;SDS011;4093;53.470;9.832;2022-08-19T07:26:49;13.35;;;8.98;;
8100;SDS011;4093;53.470;9.832;2022-08-19T07:29:18;11.25;;;8.00;;
8100;SDS011;4093;53.470;9.832;2022-08-19T07:31:48;9.98;;;8.13;;
8100;SDS011;4093;53.470;9.832;2022-08-19T07:34:15;15.82;;;8.52;;
8100;SDS011;4093;53.470;9.832;2022-08-19T07:36:44;10.18;;;8.10;;
8100;SDS011;4093;53.470;9.832;2022-08-19T07:39:11;10.00;;;8.15;;
8100;SDS011;4093;53.470;9.832;2022-08-19T07:41:42;13.73;;;9.07;;
8100;SDS011;4093;53.470;9.832;2022-08-19T07:44:09;10.80;;;8.10;;
8100;SDS011;4093;53.470;9.832;2022-08-19T07:46:38;12.75;;;8.75;;
8100;SDS011;4093;53.470;9.832;2022-08-19T07:49:07;14.90;;;10.07;;
8100;SDS011;4093;53.470;9.832;2022-08-19T07:51:43;12.70;;;8.38;;
8100;SDS011;4093;53.470;9.832;2022-08-19T07:54:11;12.20;;;8.73;;
8100;SDS011;4093;53.470;9.832;2022-08-19T07:56:37;14.45;;;9.95;;
8100;SDS011;4093;53.470;9.832;2022-08-19T07:59:04;13.95;;;10.20;;
8100;SDS011;4093;53.470;9.832;2022-08-19T08:01:31;12.73;;;10.07;;
8100;SDS011;4093;53.470;9.832;2022-08-19T08:03:58;18.67;;;10.07;;
8100;SDS011;4093;53.470;9.832;2022-08-19T08:06:41;14.07;;;9.48;;
8100;SDS011;4093;53.470;9.832;2022-08-19T08:09:29;11.70;;;9.00;;
8100;SDS011;4093;53.470;9.832;2022-08-19T08:11:59;14.20;;;8.80;;
8100;SDS011;4093;53.470;9.832;2022-08-19T08:14:29;10.77;;;8.70;;
8100;SDS011;4093;53.470;9.832;2022-08-19T08:16:57;21.20;;;11.02;;
8100;SDS011;4093;53.470;9.832;2022-08-19T08:19:25;18.02;;;10.48;;
8100;SDS011;4093;53.470;9.832;2022-08-19T08:21:55;15.48;;;10.77;;
8100;SDS011;4093;53.470;9.832;2022-08-19T08:24:23;19.05;;;10.88;;
8100;SDS011;4093;53.470;9.832;2022-08-19T08:26:50;13.80;;;11.15;;
8100;SDS011;4093;53.470;9.832;2022-08-19T08:29:16;15.73;;;11.02;;
8100;SDS011;4093;53.470;9.832;2022-08-19T08:31:44;18.52;;;11.13;;
8100;SDS011;4093;53.470;9.832;2022-08-19T08:34:13;14.63;;;10.43;;
8100;SDS011;4093;53.470;9.832;2022-08-19T08:36:42;22.58;;;12.38;;
8100;SDS011;4093;53.470;9.832;2022-08-19T08:39:13;16.88;;;11.98;;
8100;SDS011;4093;53.470;9.832;2022-08-19T08:41:44;18.73;;;11.77;;
8100;SDS011;4093;53.470;9.832;2022-08-19T08:44:19;19.85;;;11.80;;
8100;SDS011;4093;53.470;9.832;2022-08-19T08:46:48;13.38;;;10.60;;
8100;SDS011;4093;53.470;9.832;2022-08-19T08:49:25;21.05;;;11.18;;
8100;SDS011;4093;53.470;9.832;2022-08-19T08:51:57;13.10;;;10.50;;
8100;SDS011;4093;53.470;9.832;2022-08-19T08:54:30;16.27;;;11.15;;
8100;SDS011;4093;53.470;9.832;2022-08-19T08:57:02;14.20;;;10.98;;
8100;SDS011;4093;53.470;9.832;2022-08-19T08:59:34;19.27;;;10.80;;
8100;SDS011;4093;53.470;9.832;2022-08-19T09:02:05;18.08;;;12.13;;
8100;SDS011;4093;53.470;9.832;2022-08-19T09:04:33;15.85;;;11.45;;
8100;SDS011;4093;53.470;9.832;2022-08-19T09:07:04;15.98;;;11.77;;
8100;SDS011;4093;53.470;9.832;2022-08-19T09:09:43;14.70;;;10.95;;
8100;SDS011;4093;53.470;9.832;2022-08-19T09:12:13;12.93;;;9.82;;
8100;SDS011;4093;53.470;9.832;2022-08-19T09:14:45;16.83;;;11.68;;
8100;SDS011;4093;53.470;9.832;2022-08-19T09:17:16;18.38;;;11.43;;
8100;SDS011;4093;53.470;9.832;2022-08-19T09:19:47;13.80;;;10.70;;
8100;SDS011;4093;53.470;9.832;2022-08-19T09:22:17;16.55;;;11.63;;
8100;SDS011;4093;53.470;9.832;2022-08-19T09:24:47;21.60;;;12.32;;
8100;SDS011;4093;53.470;9.832;2022-08-19T09:27:14;15.43;;;12.48;;
8100;SDS011;4093;53.470;9.832;2022-08-19T09:29:40;18.65;;;13.07;;
8100;SDS011;4093;53.470;9.832;2022-08-19T09:32:07;21.48;;;13.48;;
8100;SDS011;4093;53.470;9.832;2022-08-19T09:34:33;14.52;;;11.25;;
8100;SDS011;4093;53.470;9.832;2022-08-19T09:37:00;16.25;;;9.95;;
8100;SDS011;4093;53.470;9.832;2022-08-19T09:39:28;16.30;;;12.15;;
8100;SDS011;4093;53.470;9.832;2022-08-19T09:41:57;16.85;;;12.70;;
8100;SDS011;4093;53.470;9.832;2022-08-19T09:44:23;15.98;;;11.05;;
8100;SDS011;4093;53.470;9.832;2022-08-19T09:46:50;17.00;;;11.65;;
8100;SDS011;4093;53.470;9.832;2022-08-19T09:49:17;18.25;;;12.35;;
8100;SDS011;4093;53.470;9.832;2022-08-19T09:51:45;14.93;;;11.32;;
8100;SDS011;4093;53.470;9.832;2022-08-19T09:54:15;18.90;;;11.85;;
8100;SDS011;4093;53.470;9.832;2022-08-19T09:56:41;20.13;;;13.02;;
8100;SDS011;4093;53.470;9.832;2022-08-19T09:59:09;16.50;;;12.07;;
8100;SDS011;4093;53.470;9.832;2022-08-19T10:01:37;17.55;;;12.55;;
8100;SDS011;4093;53.470;9.832;2022-08-19T10:04:03;18.90;;;13.00;;
8100;SDS011;4093;53.470;9.832;2022-08-19T10:06:33;17.85;;;12.10;;
8100;SDS011;4093;53.470;9.832;2022-08-19T10:09:00;16.60;;;12.90;;
8100;SDS011;4093;53.470;9.832;2022-08-19T10:11:29;19.42;;;12.18;;
8100;SDS011;4093;53.470;9.832;2022-08-19T10:13:55;17.90;;;13.57;;
8100;SDS011;4093;53.470;9.832;2022-08-19T10:16:23;16.02;;;12.50;;
8100;SDS011;4093;53.470;9.832;2022-08-19T10:18:51;14.35;;;12.32;;
8100;SDS011;4093;53.470;9.832;2022-08-19T10:21:19;19.27;;;13.48;;
8100;SDS011;4093;53.470;9.832;2022-08-19T10:23:48;20.35;;;14.13;;
8100;SDS011;4093;53.470;9.832;2022-08-19T10:26:17;16.35;;;12.45;;
8100;SDS011;4093;53.470;9.832;2022-08-19T10:28:45;17.95;;;12.82;;
8100;SDS011;4093;53.470;9.832;2022-08-19T10:31:13;22.75;;;13.70;;
8100;SDS011;4093;53.470;9.832;2022-08-19T10:33:43;17.67;;;13.43;;
8100;SDS011;4093;53.470;9.832;2022-08-19T10:36:11;18.35;;;12.88;;
8100;SDS011;4093;53.470;9.832;2022-08-19T10:38:40;21.83;;;16.25;;
8100;SDS011;4093;53.470;9.832;2022-08-19T10:41:08;20.67;;;15.50;;
8100;SDS011;4093;53.470;9.832;2022-08-19T10:43:37;24.20;;;16.27;;
8100;SDS011;4093;53.470;9.832;2022-08-19T10:46:05;21.55;;;15.75;;
8100;SDS011;4093;53.470;9.832;2022-08-19T10:48:32;22.10;;;15.50;;
8100;SDS011;4093;53.470;9.832;2022-08-19T10:51:00;21.35;;;15.88;;
8100;SDS011;4093;53.470;9.832;2022-08-19T10:53:45;18.13;;;14.65;;
8100;SDS011;4093;53.470;9.832;2022-08-19T10:56:12;19.45;;;15.38;;
8100;SDS011;4093;53.470;9.832;2022-08-19T10:58:53;25.13;;;16.52;;
8100;SDS011;4093;53.470;9.832;2022-08-19T11:01:21;21.35;;;15.18;;
8100;SDS011;4093;53.470;9.832;2022-08-19T11:03:48;21.90;;;16.23;;
8100;SDS011;4093;53.470;9.832;2022-08-19T11:06:16;19.85;;;15.27;;
8100;SDS011;4093;53.470;9.832;2022-08-19T11:08:42;18.70;;;15.48;;
8100;SDS011;4093;53.470;9.832;2022-08-19T11:11:10;22.27;;;15.55;;
8100;SDS011;4093;53.470;9.832;2022-08-19T11:13:38;21.05;;;15.25;;
8100;SDS011;4093;53.470;9.832;2022-08-19T11:16:07;19.88;;;16.15;;
8100;SDS011;4093;53.470;9.832;2022-08-19T11:18:36;21.90;;;15.02;;
8100;SDS011;4093;53.470;9.832;2022-08-19T11:21:07;20.73;;;15.68;;
8100;SDS011;4093;53.470;9.832;2022-08-19T11:23:37;17.35;;;14.93;;
8100;SDS011;4093;53.470;9.832;2022-08-19T11:26:03;21.90;;;14.48;;
8100;SDS011;4093;53.470;9.832;2022-08-19T11:28:30;17.60;;;14.20;;
8100;SDS011;4093;53.470;9.832;2022-08-19T11:30:57;15.77;;;13.02;;
8100;SDS011;4093;53.470;9.832;2022-08-19T11:33:23;17.58;;;13.50;;
8100;SDS011;4093;53.470;9.832;2022-08-19T11:35:51;15.50;;;13.23;;
8100;SDS011;4093;53.470;9.832;2022-08-19T11:38:18;19.98;;;16.40;;
8100;SDS011;4093;53.470;9.832;2022-08-19T11:40:53;29.80;;;22.25;;
8100;SDS011;4093;53.470;9.832;2022-08-19T11:43:20;27.58;;;21.17;;
8100;SDS011;4093;53.470;9.832;2022-08-19T11:45:47;28.33;;;22.05;;
8100;SDS011;4093;53.470;9.832;2022-08-19T11:48:14;30.83;;;25.38;;
8100;SDS011;4093;53.470;9.832;2022-08-19T11:50:40;32.15;;;25.23;;
8100;SDS011;4093;53.470;9.832;2022-08-19T11:53:08;38.05;;;27.00;;
8100;SDS011;4093;53.470;9.832;2022-08-19T11:55:36;33.67;;;24.75;;
8100;SDS011;4093;53.470;9.832;2022-08-19T11:58:05;30.17;;;22.38;;
8100;SDS011;4093;53.470;9.832;2022-08-19T12:00:32;28.00;;;20.50;;
8100;SDS011;4093;53.470;9.832;2022-08-19T12:03:01;33.95;;;24.48;;
8100;SDS011;4093;53.470;9.832;2022-08-19T12:05:28;26.13;;;19.83;;
8100;SDS011;4093;53.470;9.832;2022-08-19T12:07:55;23.88;;;19.50;;
8100;SDS011;4093;53.470;9.832;2022-08-19T12:10:21;25.83;;;17.35;;
8100;SDS011;4093;53.470;9.832;2022-08-19T12:12:49;18.90;;;16.02;;
8100;SDS011;4093;53.470;9.832;2022-08-19T12:15:17;20.13;;;15.77;;
8100;SDS011;4093;53.470;9.832;2022-08-19T12:17:44;17.70;;;15.05;;
8100;SDS011;4093;53.470;9.832;2022-08-19T12:20:11;17.73;;;15.35;;
8100;SDS011;4093;53.470;9.832;2022-08-19T12:22:40;18.48;;;16.33;;
8100;SDS011;4093;53.470;9.832;2022-08-19T12:25:07;17.77;;;14.40;;
8100;SDS011;4093;53.470;9.832;2022-08-19T12:27:34;17.45;;;15.57;;
8100;SDS011;4093;53.470;9.832;2022-08-19T12:30:01;19.00;;;16.80;;
8100;SDS011;4093;53.470;9.832;2022-08-19T12:32:29;19.70;;;16.40;;
8100;SDS011;4093;53.470;9.832;2022-08-19T12:34:56;21.48;;;16.17;;
8100;SDS011;4093;53.470;9.832;2022-08-19T12:37:22;17.60;;;15.75;;
8100;SDS011;4093;53.470;9.832;2022-08-19T12:39:49;21.00;;;17.58;;
8100;SDS011;4093;53.470;9.832;2022-08-19T12:42:16;17.08;;;15.30;;
8100;SDS011;4093;53.470;9.832;2022-08-19T12:44:43;19.77;;;14.70;;
8100;SDS011;4093;53.470;9.832;2022-08-19T12:47:11;18.60;;;13.73;;
8100;SDS011;4093;53.470;9.832;2022-08-19T12:49:40;19.33;;;15.88;;
8100;SDS011;4093;53.470;9.832;2022-08-19T12:52:09;16.60;;;14.80;;
8100;SDS011;4093;53.470;9.832;2022-08-19T12:54:36;17.23;;;14.63;;
8100;SDS011;4093;53.470;9.832;2022-08-19T12:57:04;16.00;;;14.32;;
8100;SDS011;4093;53.470;9.832;2022-08-19T12:59:32;17.13;;;14.35;;
8100;SDS011;4093;53.470;9.832;2022-08-19T13:01:59;16.67;;;13.40;;
8100;SDS011;4093;53.470;9.832;2022-08-19T13:04:26;16.25;;;14.55;;
8100;SDS011;4093;53.470;9.832;2022-08-19T13:06:54;15.00;;;13.05;;
8100;SDS011;4093;53.470;9.832;2022-08-19T13:09:21;16.48;;;14.55;;
8100;SDS011;4093;53.470;9.832;2022-08-19T13:11:48;14.48;;;12.95;;
8100;SDS011;4093;53.470;9.832;2022-08-19T13:14:14;17.30;;;14.32;;
8100;SDS011;4093;53.470;9.832;2022-08-19T13:16:41;15.85;;;13.32;;
8100;SDS011;4093;53.470;9.832;2022-08-19T13:19:08;15.65;;;12.93;;
8100;SDS011;4093;53.470;9.832;2022-08-19T13:21:35;15.48;;;11.90;;
8100;SDS011;4093;53.470;9.832;2022-08-19T13:24:04;14.05;;;11.20;;
8100;SDS011;4093;53.470;9.832;2022-08-19T13:26:32;13.30;;;11.68;;
8100;SDS011;4093;53.470;9.832;2022-08-19T13:28:58;13.57;;;12.00;;
8100;SDS011;4093;53.470;9.832;2022-08-19T13:31:42;12.35;;;10.88;;
8100;SDS011;4093;53.470;9.832;2022-08-19T13:34:27;13.40;;;11.57;;
8100;SDS011;4093;53.470;9.832;2022-08-19T13:36:57;13.27;;;11.90;;
8100;SDS011;4093;53.470;9.832;2022-08-19T13:39:25;10.45;;;9.15;;
8100;SDS011;4093;53.470;9.832;2022-08-19T13:41:52;11.95;;;10.80;;
8100;SDS011;4093;53.470;9.832;2022-08-19T13:44:19;12.50;;;11.13;;
8100;SDS011;4093;53.470;9.832;2022-08-19T13:46:46;14.10;;;12.65;;
8100;SDS011;4093;53.470;9.832;2022-08-19T13:49:18;13.10;;;11.40;;
8100;SDS011;4093;53.470;9.832;2022-08-19T13:51:45;15.48;;;11.15;;
8100;SDS011;4093;53.470;9.832;2022-08-19T13:54:12;15.60;;;12.88;;
8100;SDS011;4093;53.470;9.832;2022-08-19T13:56:43;12.82;;;10.80;;
8100;SDS011;4093;53.470;9.832;2022-08-19T13:59:11;12.60;;;11.07;;
8100;SDS011;4093;53.470;9.832;2022-08-19T14:01:38;13.18;;;11.77;;
8100;SDS011;4093;53.470;9.832;2022-08-19T14:04:06;12.63;;;11.05;;
8100;SDS011;4093;53.470;9.832;2022-08-19T14:06:33;12.40;;;11.02;;
8100;SDS011;4093;53.470;9.832;2022-08-19T14:09:00;14.15;;;10.65;;
8100;SDS011;4093;53.470;9.832;2022-08-19T14:11:28;13.38;;;11.30;;
8100;SDS011;4093;53.470;9.832;2022-08-19T14:13:56;13.80;;;10.85;;
8100;SDS011;4093;53.470;9.832;2022-08-19T14:16:22;11.18;;;10.10;;
8100;SDS011;4093;53.470;9.832;2022-08-19T14:18:49;12.13;;;10.82;;
8100;SDS011;4093;53.470;9.832;2022-08-19T14:21:16;11.18;;;9.50;;
8100;SDS011;4093;53.470;9.832;2022-08-19T14:23:46;11.25;;;10.15;;
8100;SDS011;4093;53.470;9.832;2022-08-19T14:26:13;12.10;;;10.27;;
8100;SDS011;4093;53.470;9.832;2022-08-19T14:28:43;12.30;;;11.10;;
8100;SDS011;4093;53.470;9.832;2022-08-19T14:31:11;10.38;;;9.38;;
8100;SDS011;4093;53.470;9.832;2022-08-19T14:33:41;11.90;;;9.70;;
8100;SDS011;4093;53.470;9.832;2022-08-19T14:36:08;14.30;;;10.90;;
8100;SDS011;4093;53.470;9.832;2022-08-19T14:38:34;11.73;;;9.98;;
8100;SDS011;4093;53.470;9.832;2022-08-19T14:41:11;11.23;;;9.35;;
8100;SDS011;4093;53.470;9.832;2022-08-19T14:43:42;11.38;;;10.18;;
8100;SDS011;4093;53.470;9.832;2022-08-19T14:46:12;10.38;;;9.27;;
8100;SDS011;4093;53.470;9.832;2022-08-19T14:48:40;11.52;;;10.07;;
8100;SDS011;4093;53.470;9.832;2022-08-19T14:51:07;9.43;;;8.55;;
8100;SDS011;4093;53.470;9.832;2022-08-19T14:53:34;9.73;;;8.82;;
8100;SDS011;4093;53.470;9.832;2022-08-19T14:56:01;10.65;;;9.55;;
8100;SDS011;4093;53.470;9.832;2022-08-19T14:58:33;11.30;;;9.23;;
8100;SDS011;4093;53.470;9.832;2022-08-19T15:01:00;10.48;;;9.43;;
8100;SDS011;4093;53.470;9.832;2022-08-19T15:03:28;10.23;;;9.32;;